Brackett, Wisconsin
Current Conditions -  °F | °C
As of 3:56 AM on Sunday 26 Oct 2014 (Local Time) from KEAU Reporting Station
Clear Clear  
Wind Chill: -1°   Ceiling: Unl
Heat Index:   Visibility: 10mi
Dew Point: -3°   Wind: 6mph
Humidity: 72%   Direction: 220°SW
Pressure: 30.02"   Gusts: NA
Location:  44.7441°N, 91.2945°W
Report Text: KEAU 260856Z AUTO 22005KT 10SM CLR 02/M03 A3002 RMK AO2 SLP168 T00171028 56001
Loading
Personal Weather Stations






























Interactive Weather Map
Tropical Storm Tracking
New forecast layout! Learn more

10-Day Weather Forecast

Advertisements
Track Severe Weather on mobile